This is the latest recevied weather packets stored in our database for station/object SQ2LXT-10. If no packets are shown the sender has not sent any weather packets the latest 10 day(s).
| Time | Temp. | Humidity | Pressure | Rain* | Wind** | Luminosity | Snow |
|---|---|---|---|---|---|---|---|
| 1778074251 | 20° C | 87% | 1000.6 hPa | - | - | - | - |
| 1778073351 | 21.11° C | 76% | 1000.5 hPa | - | - | - | - |
| 1778072451 | 19.44° C | 89% | 1000.4 hPa | - | - | - | - |
| 1778071551 | 20° C | 81% | 1000.3 hPa | - | - | - | - |
| 1778070651 | 20.56° C | 83% | 1000.3 hPa | - | - | - | - |
| 1778069751 | 21.11° C | 86% | 1000.4 hPa | - | - | - | - |
| 1778068851 | 18.89° C | 97% | 1000.3 hPa | - | - | - | - |
| 1778067950 | 20° C | 82% | 1000.1 hPa | - | - | - | - |
| 1778067050 | 20° C | 90% | 999.9 hPa | - | - | - | - |
| 1778066150 | 21.67° C | 70% | 999.8 hPa | - | - | - | - |
| 1778065250 | 22.22° C | 68% | 999.6 hPa | - | - | - | - |
| 1778064350 | 21.11° C | 78% | 999.6 hPa | - | - | - | - |
| 1778063450 | 20.56° C | 77% | 999.6 hPa | - | - | - | - |
| 1778062550 | 21.67° C | 72% | 999.6 hPa | - | - | - | - |
| 1778061650 | 20.56° C | 84% | 999.7 hPa | - | - | - | - |
| 1778060750 | 18.33° C | 100% | 999.7 hPa | - | - | - | - |
| 1778059850 | 20° C | 82% | 999.4 hPa | - | - | - | - |
| 1778058950 | 20.56° C | 85% | 999.6 hPa | - | - | - | - |
| 1778058050 | 19.44° C | 93% | 999.6 hPa | - | - | - | - |
| 1778057150 | 19.44° C | 87% | 999.6 hPa | - | - | - | - |
| 1778056250 | 20° C | 87% | 999.7 hPa | - | - | - | - |
| 1778055350 | 19.44° C | 94% | 999.8 hPa | - | - | - | - |
| 1778054450 | 17.78° C | 99% | 999.2 hPa | - | - | - | - |
| 1778053550 | 17.78° C | 100% | 999.3 hPa | - | - | - | - |
| 1778052649 | 16.67° C | 100% | 999.5 hPa | - | - | - | - |
* Rain since midnight (hover to see other rain measurements)
** Current wind speed in m/s (hover to see current wind gust speed)